KLBF/LBF METAR and TAF weather

Enter ICAO airport designator
Station Type Date Time Source
KLBF METAR 2022/06/26 06:53 UTC NOAA

KLBF 260653Z AUTO 36009KT 10SM CLR 16/04 A3038 RMK AO2 SLP268 T01610039


Station Type Date Time Source
KLBF Decoded METAR 2022/06/26 06:53 UTC NOAA

NORTH PLATTE REGIONAL AIRPORT , NE, United States (KLBF) 41-07N 100-40W 847M
Jun 26, 2022 - 02:53 AM EDT / 2022.06.26 0653 UTC
Wind: from the N (360 degrees) at 10 MPH (9 KT):0
Visibility: 10 mile(s):0
Sky conditions: clear
Temperature: 61.0 F (16.1 C)
Dew Point: 39.0 F (3.9 C)
Relative Humidity: 44%
Pressure (altimeter): 30.38 in. Hg (1028 hPa)
ob: KLBF 260653Z AUTO 36009KT 10SM CLR 16/04 A3038 RMK AO2 SLP268 T01610039
cycle: 7

Station Type Date Time Source
KLBF TAF 2022/06/26 06:22 UTC NOAA

TAF KLBF 260520Z 2606/2706 01006KT P6SM SCT250
FM261400 04007KT P6SM BKN100
FM261600 35007KT P6SM BKN090
FM261800 32006KT P6SM BKN090
FM270000 29006KT P6SM BKN200

Example: see airport list